createdAt,value
2019-01-15T00:00:54.321Z,-82
2019-01-15T00:03:23.968Z,-82
2019-01-15T00:05:53.742Z,-83
2019-01-15T00:08:23.382Z,-83
2019-01-15T00:10:53.100Z,-82
2019-01-15T00:13:22.771Z,-82
2019-01-15T00:15:52.617Z,-82
2019-01-15T00:18:22.320Z,-82
2019-01-15T00:20:52.068Z,-82
2019-01-15T00:23:21.708Z,-82
2019-01-15T00:25:51.349Z,-82
2019-01-15T00:28:21.151Z,-82
2019-01-15T00:30:50.774Z,-82
2019-01-15T00:33:20.488Z,-82
2019-01-15T00:35:50.172Z,-82
2019-01-15T00:38:19.834Z,-82
2019-01-15T00:40:49.547Z,-82
2019-01-15T00:43:19.205Z,-82
2019-01-15T00:45:48.897Z,-82
2019-01-15T00:48:18.897Z,-83
2019-01-15T00:50:48.584Z,-81
2019-01-15T00:53:18.316Z,-82
2019-01-15T00:55:48.012Z,-82
2019-01-15T00:58:17.877Z,-82
2019-01-15T01:00:47.612Z,-82
2019-01-15T01:03:17.309Z,-82
2019-01-15T01:05:47.149Z,-82
2019-01-15T01:08:16.881Z,-82
2019-01-15T01:10:46.645Z,-83
2019-01-15T01:13:16.428Z,-82
2019-01-15T01:15:46.204Z,-83
2019-01-15T01:18:15.853Z,-83
2019-01-15T01:20:45.621Z,-82
2019-01-15T01:23:15.407Z,-82
2019-01-15T01:25:45.115Z,-83
2019-01-15T01:28:14.827Z,-82
2019-01-15T01:30:45.076Z,-83
2019-01-15T01:33:14.756Z,-82
2019-01-15T01:35:44.402Z,-83
2019-01-15T01:38:14.146Z,-82
2019-01-15T01:40:43.863Z,-82
2019-01-15T01:43:13.880Z,-82
2019-01-15T01:45:43.724Z,-83
2019-01-15T01:48:13.519Z,-81
2019-01-15T01:50:43.182Z,-81
2019-01-15T01:53:12.869Z,-82
2019-01-15T01:55:42.687Z,-81
2019-01-15T01:58:12.493Z,-81
2019-01-15T02:00:42.345Z,-81
2019-01-15T02:03:12.083Z,-81
2019-01-15T02:05:41.742Z,-82
2019-01-15T02:08:11.501Z,-82
2019-01-15T02:10:41.270Z,-82
2019-01-15T02:13:11.176Z,-81
2019-01-15T02:15:40.895Z,-82
2019-01-15T02:18:10.608Z,-81
2019-01-15T02:20:40.315Z,-81
2019-01-15T02:23:09.949Z,-82
2019-01-15T02:25:39.718Z,-82
2019-01-15T02:28:09.388Z,-81
2019-01-15T02:30:39.172Z,-81
2019-01-15T02:33:08.890Z,-82
2019-01-15T02:35:39.087Z,-82
2019-01-15T02:38:08.902Z,-82
2019-01-15T02:40:38.644Z,-80
2019-01-15T02:43:08.431Z,-80
2019-01-15T02:45:38.126Z,-80
2019-01-15T02:48:07.973Z,-80
2019-01-15T02:50:37.712Z,-79
2019-01-15T02:53:07.432Z,-80
2019-01-15T02:55:37.135Z,-80
2019-01-15T02:58:06.907Z,-80
2019-01-15T03:00:36.563Z,-81
2019-01-15T03:03:06.395Z,-81
2019-01-15T03:05:36.122Z,-81
2019-01-15T03:08:05.996Z,-81
2019-01-15T03:10:35.849Z,-81
2019-01-15T03:13:05.994Z,-81
2019-01-15T03:15:35.663Z,-81
2019-01-15T03:18:05.351Z,-81
2019-01-15T03:20:35.182Z,-81
2019-01-15T03:23:05.157Z,-82
2019-01-15T03:25:34.869Z,-82
2019-01-15T03:28:04.613Z,-82
2019-01-15T03:30:34.365Z,-82
2019-01-15T03:33:04.225Z,-82
2019-01-15T03:35:33.952Z,-81
2019-01-15T03:38:03.730Z,-81
2019-01-15T03:40:33.431Z,-81
2019-01-15T03:43:04.174Z,-82
2019-01-15T03:45:34.083Z,-82
2019-01-15T03:48:03.930Z,-82
2019-01-15T03:50:33.573Z,-83
2019-01-15T03:53:03.550Z,-82
2019-01-15T03:55:33.207Z,-82
2019-01-15T03:58:02.842Z,-82
2019-01-15T04:00:32.626Z,-81
2019-01-15T04:03:02.350Z,-81
2019-01-15T04:05:32.294Z,-82
2019-01-15T04:08:02.187Z,-82
2019-01-15T04:10:32.082Z,-81
2019-01-15T04:13:01.801Z,-82
2019-01-15T04:15:31.587Z,-82
2019-01-15T04:18:01.331Z,-81
2019-01-15T04:20:31.014Z,-82
2019-01-15T04:23:00.763Z,-81
2019-01-15T04:25:30.511Z,-81
2019-01-15T04:28:00.171Z,-81
2019-01-15T04:30:29.853Z,-80
2019-01-15T04:32:59.582Z,-81
2019-01-15T04:35:29.339Z,-81
2019-01-15T04:37:59.010Z,-81
2019-01-15T04:40:28.783Z,-81
2019-01-15T04:42:58.431Z,-81
2019-01-15T04:45:28.233Z,-81
2019-01-15T04:47:57.947Z,-81
2019-01-15T04:50:27.845Z,-81
2019-01-15T04:53:01.737Z,-81
2019-01-15T04:55:31.490Z,-82
2019-01-15T04:58:01.304Z,-82
2019-01-15T05:00:31.214Z,-82
2019-01-15T05:03:02.679Z,-82
2019-01-15T05:05:32.417Z,-81
2019-01-15T05:08:02.088Z,-82
2019-01-15T05:10:31.741Z,-80
2019-01-15T05:13:01.463Z,-82
2019-01-15T05:15:31.304Z,-82
2019-01-15T05:18:01.048Z,-81
2019-01-15T05:20:30.842Z,-81
2019-01-15T05:23:00.573Z,-81
2019-01-15T05:25:30.353Z,-82
2019-01-15T05:28:00.017Z,-82
2019-01-15T05:30:30.225Z,-82
2019-01-15T05:33:00.013Z,-82
2019-01-15T05:35:29.802Z,-82
2019-01-15T05:37:59.473Z,-82
2019-01-15T05:40:29.285Z,-82
2019-01-15T05:42:58.995Z,-82
2019-01-15T05:45:30.349Z,-81
2019-01-15T05:48:01.726Z,-81
2019-01-15T05:50:33.047Z,-82
2019-01-15T05:53:02.695Z,-81
2019-01-15T05:55:32.397Z,-82
2019-01-15T05:58:02.140Z,-81
2019-01-15T06:00:31.976Z,-83
2019-01-15T06:03:01.674Z,-83
2019-01-15T06:05:31.387Z,-83
2019-01-15T06:08:01.190Z,-83
2019-01-15T06:10:30.903Z,-79
2019-01-15T06:13:00.566Z,-82
2019-01-15T06:15:30.403Z,-82
2019-01-15T06:18:00.079Z,-83
2019-01-15T06:20:29.857Z,-81
2019-01-15T06:22:59.798Z,-81
2019-01-15T06:25:29.457Z,-82
2019-01-15T06:27:59.156Z,-83
2019-01-15T06:30:28.880Z,-83
2019-01-15T06:32:58.517Z,-83
2019-01-15T06:35:28.165Z,-83
2019-01-15T06:37:57.878Z,-82
2019-01-15T06:40:27.663Z,-82
2019-01-15T06:42:57.301Z,-83
2019-01-15T06:45:30.303Z,-82
2019-01-15T06:48:00.084Z,-82
2019-01-15T06:50:30.058Z,-82
2019-01-15T06:52:59.807Z,-80
2019-01-15T06:55:29.520Z,-82
2019-01-15T06:57:59.246Z,-81
2019-01-15T07:00:31.857Z,-82
2019-01-15T07:03:03.175Z,-82
2019-01-15T07:05:32.983Z,-82
2019-01-15T07:08:02.737Z,-83
2019-01-15T07:10:37.115Z,-83
2019-01-15T07:13:06.993Z,-82
2019-01-15T07:15:36.794Z,-82
2019-01-15T07:18:06.614Z,-81
2019-01-15T07:20:36.336Z,-82
2019-01-15T07:23:06.174Z,-81
2019-01-15T07:25:35.985Z,-81
2019-01-15T07:28:05.795Z,-81
2019-01-15T07:30:45.668Z,-82
2019-01-15T07:33:15.479Z,-81
2019-01-15T07:35:45.230Z,-81
2019-01-15T07:38:15.151Z,-82
2019-01-15T07:40:44.916Z,-79
2019-01-15T07:45:46.115Z,-54
2019-01-15T07:48:16.082Z,-54
2019-01-15T07:50:45.899Z,-54
2019-01-15T07:53:15.741Z,-53
2019-01-15T07:55:45.556Z,-53
2019-01-15T07:58:15.344Z,-53
2019-01-15T08:00:45.015Z,-53
2019-01-15T08:03:14.784Z,-54
2019-01-15T08:05:44.650Z,-53
2019-01-15T08:08:14.506Z,-55
2019-01-15T08:10:44.175Z,-54
2019-01-15T08:13:14.434Z,-55
2019-01-15T08:15:44.179Z,-53
2019-01-15T08:18:14.039Z,-58
2019-01-15T08:20:43.919Z,-55
2019-01-15T08:23:13.745Z,-55
2019-01-15T08:25:43.572Z,-56
2019-01-15T08:28:13.219Z,-56
2019-01-15T08:30:42.993Z,-55
2019-01-15T08:33:12.829Z,-55
2019-01-15T08:35:42.538Z,-55
2019-01-15T08:38:12.315Z,-55
2019-01-15T08:40:42.116Z,-54
2019-01-15T08:43:12.153Z,-54
2019-01-15T08:45:41.936Z,-55
2019-01-15T08:48:13.255Z,-55
2019-01-15T08:50:43.433Z,-54
2019-01-15T08:53:15.222Z,-55
2019-01-15T08:55:45.531Z,-54
2019-01-15T08:58:15.299Z,-54
2019-01-15T09:00:45.105Z,-55
2019-01-15T09:03:14.842Z,-55
2019-01-15T09:05:44.671Z,-54
2019-01-15T09:08:14.476Z,-55
2019-01-15T09:10:44.899Z,-55
2019-01-15T09:13:14.747Z,-55
2019-01-15T09:15:44.534Z,-54
2019-01-15T09:18:14.331Z,-54
2019-01-15T09:20:44.242Z,-54
2019-01-15T09:23:14.054Z,-55
2019-01-15T09:25:43.854Z,-55
2019-01-15T09:28:13.568Z,-53
2019-01-15T09:30:43.380Z,-55
2019-01-15T09:33:13.260Z,-55
2019-01-15T09:35:42.974Z,-55
2019-01-15T09:38:12.840Z,-57
2019-01-15T09:40:42.651Z,-56
2019-01-15T09:43:12.370Z,-56
2019-01-15T09:45:42.153Z,-54
2019-01-15T09:48:12.953Z,-54
2019-01-15T09:50:42.666Z,-55
2019-01-15T09:53:12.590Z,-54
2019-01-15T09:55:42.685Z,-54
2019-01-15T09:58:13.000Z,-57
2019-01-15T10:00:42.792Z,-55
2019-01-15T10:03:12.546Z,-55
2019-01-15T10:05:42.386Z,-55
2019-01-15T10:08:12.095Z,-54
2019-01-15T10:10:42.045Z,-53
2019-01-15T10:13:11.698Z,-56
2019-01-15T10:15:41.640Z,-60
2019-01-15T10:18:11.488Z,-62
2019-01-15T10:20:41.267Z,-52
2019-01-15T10:23:11.052Z,-52
2019-01-15T10:25:42.530Z,-57
2019-01-15T10:28:13.011Z,-58
2019-01-15T10:31:09.300Z,-55
2019-01-15T10:33:43.690Z,-57
2019-01-15T10:36:11.665Z,-53
2019-01-15T10:38:41.452Z,-53
2019-01-15T10:41:11.733Z,-53
2019-01-15T10:43:41.641Z,-53
2019-01-15T10:46:11.377Z,-53
2019-01-15T10:48:41.021Z,-59
2019-01-15T10:51:10.869Z,-55
2019-01-15T10:53:40.684Z,-55
2019-01-15T10:56:10.578Z,-60
2019-01-15T10:58:40.564Z,-57
2019-01-15T11:01:10.328Z,-53
2019-01-15T11:03:40.146Z,-51
2019-01-15T11:06:10.053Z,-51
2019-01-15T11:08:39.859Z,-52
2019-01-15T11:11:09.620Z,-50
2019-01-15T11:13:39.431Z,-53
2019-01-15T11:16:09.140Z,-53
2019-01-15T11:18:39.582Z,-55
2019-01-15T11:21:09.450Z,-55
2019-01-15T11:23:39.098Z,-56
2019-01-15T11:26:08.900Z,-56
2019-01-15T11:28:38.710Z,-55
2019-01-15T11:31:08.527Z,-55
2019-01-15T11:33:38.244Z,-56
2019-01-15T11:36:07.938Z,-55
2019-01-15T11:38:37.708Z,-56
2019-01-15T11:41:07.640Z,-54
2019-01-15T11:43:39.016Z,-56
2019-01-15T11:46:08.869Z,-54
2019-01-15T11:48:38.580Z,-55
2019-01-15T11:51:08.736Z,-54
2019-01-15T11:53:38.417Z,-54
2019-01-15T11:56:08.125Z,-57
2019-01-15T11:58:38.165Z,-55
2019-01-15T12:01:12.457Z,-57
2019-01-15T12:03:42.013Z,-57
2019-01-15T12:06:16.251Z,-55
2019-01-15T12:08:50.544Z,-57
2019-01-15T12:11:24.748Z,-53
2019-01-15T12:13:56.040Z,-57
2019-01-15T12:16:43.941Z,-55
2019-01-15T12:19:31.697Z,-54
2019-01-15T12:22:09.116Z,-54
2019-01-15T12:24:56.851Z,-56
2019-01-15T12:27:44.205Z,-56
2019-01-15T12:30:20.422Z,-55
2019-01-15T12:32:52.860Z,-55
2019-01-15T12:35:40.556Z,-54
2019-01-15T12:38:15.859Z,-54
2019-01-15T12:40:49.844Z,-55
2019-01-15T12:43:23.754Z,-55
2019-01-15T12:46:10.799Z,-54
2019-01-15T12:49:00.859Z,-55
2019-01-15T12:51:32.979Z,-53
2019-01-15T12:54:13.530Z,-54
2019-01-15T12:56:54.941Z,-53
2019-01-15T12:59:29.008Z,-55
2019-01-15T13:02:00.466Z,-56
2019-01-15T13:04:37.547Z,-55
2019-01-15T13:07:25.251Z,-55
2019-01-15T13:09:56.600Z,-55
2019-01-15T13:12:28.118Z,-55
2019-01-15T13:15:11.754Z,-56
2019-01-15T13:17:45.568Z,-55
2019-01-15T13:20:23.490Z,-55
2019-01-15T13:22:57.528Z,-53
2019-01-15T13:25:44.362Z,-54
2019-01-15T13:28:13.927Z,-52
2019-01-15T13:30:45.275Z,-54
2019-01-15T13:33:19.400Z,-56
2019-01-15T13:35:54.455Z,-56
2019-01-15T13:38:28.887Z,-53
2019-01-15T13:41:00.738Z,-55
2019-01-15T13:43:48.246Z,-54
2019-01-15T13:46:31.627Z,-53
2019-01-15T13:49:08.562Z,-54
2019-01-15T13:51:57.936Z,-53
2019-01-15T13:54:35.461Z,-53
2019-01-15T13:57:23.026Z,-54
2019-01-15T14:00:02.804Z,-55
2019-01-15T14:02:50.251Z,-54
2019-01-15T14:05:24.451Z,-55
2019-01-15T14:07:58.352Z,-55
2019-01-15T14:10:29.788Z,-55
2019-01-15T14:13:06.861Z,-56
2019-01-15T14:15:41.344Z,-55
2019-01-15T14:18:17.148Z,-54
2019-01-15T14:21:04.834Z,-54
2019-01-15T14:23:36.182Z,-57
2019-01-15T14:26:07.744Z,-54
2019-01-15T14:28:48.180Z,-54
2019-01-15T14:31:28.374Z,-55
2019-01-15T14:33:59.700Z,-54
2019-01-15T14:36:43.063Z,-54
2019-01-15T14:39:32.948Z,-54
2019-01-15T14:42:08.124Z,-54
2019-01-15T14:44:39.536Z,-54
2019-01-15T14:47:16.515Z,-54
2019-01-15T14:50:04.144Z,-55
2019-01-15T14:52:51.377Z,-55
2019-01-15T14:55:25.267Z,-56
2019-01-15T14:58:12.806Z,-55
2019-01-15T15:00:47.182Z,-56
2019-01-15T15:03:35.321Z,-55
2019-01-15T15:06:08.835Z,-56
2019-01-15T15:08:56.394Z,-55
2019-01-15T15:11:27.887Z,-55
2019-01-15T15:14:15.447Z,-55
2019-01-15T15:16:54.167Z,-55
2019-01-15T15:19:41.751Z,-55
2019-01-15T15:22:29.494Z,-54
2019-01-15T15:25:06.840Z,-55
2019-01-15T15:27:38.193Z,-55
2019-01-15T15:30:29.996Z,-54
2019-01-15T15:33:04.345Z,-54
2019-01-15T15:35:38.522Z,-54
2019-01-15T15:38:25.839Z,-54
2019-01-15T15:40:57.275Z,-55
2019-01-15T15:43:26.859Z,-53
2019-01-15T15:46:11.018Z,-55
2019-01-15T15:48:50.663Z,-55
2019-01-15T15:51:37.205Z,-55
2019-01-15T15:54:09.617Z,-54
2019-01-15T15:56:58.826Z,-57
2019-01-15T15:59:45.155Z,-54
2019-01-15T16:02:31.915Z,-55
2019-01-15T16:05:03.431Z,-54
2019-01-15T16:07:50.291Z,-55
2019-01-15T16:10:21.626Z,-57
2019-01-15T16:13:01.767Z,-55
2019-01-15T16:15:33.173Z,-54
2019-01-15T16:18:16.188Z,-54
2019-01-15T16:20:48.363Z,-54
2019-01-15T16:23:34.826Z,-55
2019-01-15T16:26:18.673Z,-54
2019-01-15T16:28:52.965Z,-54
2019-01-15T16:31:27.372Z,-54
2019-01-15T16:34:14.908Z,-55
2019-01-15T16:36:55.399Z,-55
2019-01-15T16:39:43.266Z,-57
2019-01-15T16:42:12.754Z,-56
2019-01-15T16:44:49.807Z,-57
2019-01-15T16:47:26.990Z,-54
2019-01-15T16:49:58.307Z,-55
2019-01-15T16:52:44.353Z,-55
2019-01-15T16:55:18.424Z,-54
2019-01-15T16:57:53.992Z,-54
2019-01-15T17:00:31.247Z,-55
2019-01-15T17:03:15.785Z,-55
2019-01-15T17:06:00.688Z,-55
2019-01-15T17:08:48.573Z,-55
2019-01-15T17:11:19.943Z,-54
2019-01-15T17:13:54.398Z,-53
2019-01-15T17:16:41.941Z,-56
2019-01-15T17:19:13.368Z,-55
2019-01-15T17:21:47.335Z,-53
2019-01-15T17:24:22.668Z,-53
2019-01-15T17:27:09.058Z,-58
2019-01-15T17:29:46.852Z,-55
2019-01-15T17:32:18.232Z,-54
2019-01-15T17:35:04.979Z,-53
2019-01-15T17:37:39.335Z,-54
2019-01-15T17:40:12.039Z,-55
2019-01-15T17:42:47.543Z,-54
2019-01-15T17:45:18.940Z,-62
2019-01-15T17:48:00.208Z,-57
2019-01-15T17:50:31.740Z,-55
2019-01-15T17:53:05.823Z,-56
2019-01-15T17:55:37.133Z,-57
2019-01-15T17:58:08.901Z,-55
2019-01-15T18:00:53.769Z,-58
2019-01-15T18:03:41.241Z,-53
2019-01-15T18:06:10.829Z,-55
2019-01-15T18:08:45.313Z,-54
2019-01-15T18:11:16.772Z,-53
2019-01-15T18:14:04.188Z,-54
2019-01-15T18:16:51.711Z,-54
2019-01-15T18:19:25.817Z,-58
2019-01-15T18:21:59.837Z,-55
2019-01-15T18:24:34.180Z,-56
2019-01-15T18:27:21.790Z,-57
2019-01-15T18:30:09.028Z,-54
2019-01-15T18:32:52.456Z,-56
2019-01-15T18:35:39.712Z,-55
2019-01-15T18:38:11.107Z,-55
2019-01-15T18:40:48.311Z,-54
2019-01-15T18:43:35.462Z,-57
2019-01-15T18:46:10.935Z,-55
2019-01-15T18:48:47.682Z,-55
2019-01-15T18:51:19.085Z,-54
2019-01-15T18:53:50.456Z,-54
2019-01-15T18:56:21.816Z,-55
2019-01-15T18:59:11.252Z,-59
2019-01-15T19:01:45.373Z,-55
2019-01-15T19:04:28.451Z,-56
2019-01-15T19:07:15.943Z,-54
2019-01-15T19:09:56.073Z,-55
2019-01-15T19:12:27.358Z,-56
2019-01-15T19:15:10.723Z,-54
2019-01-15T19:17:42.024Z,-54
2019-01-15T19:20:28.861Z,-53
2019-01-15T19:23:05.812Z,-54
2019-01-15T19:25:42.909Z,-53
2019-01-15T19:28:20.052Z,-55
2019-01-15T19:30:57.461Z,-54
2019-01-15T19:33:41.021Z,-54
2019-01-15T19:36:18.473Z,-58
2019-01-15T19:39:06.429Z,-55
2019-01-15T19:41:54.109Z,-54
2019-01-15T19:44:41.550Z,-54
2019-01-15T19:47:29.184Z,-55
2019-01-15T19:50:09.794Z,-55
2019-01-15T19:52:50.045Z,-57
2019-01-15T19:55:21.465Z,-55
2019-01-15T19:58:09.009Z,-56
2019-01-15T20:00:43.199Z,-55
2019-01-15T20:03:14.678Z,-55
2019-01-15T20:06:04.632Z,-54
2019-01-15T20:08:52.278Z,-53
2019-01-15T20:11:21.689Z,-53
2019-01-15T20:14:10.918Z,-56
2019-01-15T20:16:58.181Z,-55
2019-01-15T20:19:45.965Z,-55
2019-01-15T20:22:27.802Z,-57
2019-01-15T20:25:11.165Z,-57
2019-01-15T20:27:42.717Z,-56
2019-01-15T20:30:13.759Z,-56
2019-01-15T20:32:50.045Z,-54
2019-01-15T20:35:21.505Z,-55
2019-01-15T20:38:10.951Z,-52
2019-01-15T20:40:44.145Z,-55
2019-01-15T20:43:18.373Z,-55
2019-01-15T20:45:49.747Z,-55
2019-01-15T20:48:34.521Z,-54
2019-01-15T20:51:10.854Z,-55
2019-01-15T20:53:52.972Z,-56
2019-01-15T20:56:28.136Z,-55
2019-01-15T20:59:15.708Z,-53
2019-01-15T21:01:49.548Z,-56
2019-01-15T21:04:26.390Z,-56
2019-01-15T21:06:57.733Z,-55
2019-01-15T21:09:47.118Z,-55
2019-01-15T21:12:18.413Z,-55
2019-01-15T21:15:08.310Z,-54
2019-01-15T21:17:52.763Z,-52
2019-01-15T21:20:24.157Z,-53
2019-01-15T21:23:07.451Z,-50
2019-01-15T21:25:44.926Z,-51
2019-01-15T21:28:16.541Z,-59
2019-01-15T21:30:50.596Z,-59
2019-01-15T21:33:36.185Z,-55
2019-01-15T21:36:21.565Z,-51
2019-01-15T21:38:59.107Z,-53
2019-01-15T21:41:47.888Z,-54
2019-01-15T21:44:17.434Z,-55
2019-01-15T21:46:55.430Z,-56
2019-01-15T21:49:32.495Z,-54
2019-01-15T21:52:14.353Z,-54
2019-01-15T21:54:50.027Z,-55
2019-01-15T21:57:36.256Z,-54
2019-01-15T22:00:12.543Z,-54
2019-01-15T22:02:49.878Z,-54
2019-01-15T22:05:37.257Z,-55
2019-01-15T22:08:17.178Z,-58
2019-01-15T22:10:49.304Z,-52
2019-01-15T22:13:36.972Z,-53
2019-01-15T22:16:11.201Z,-55
2019-01-15T22:18:54.580Z,-52
2019-01-15T22:21:25.930Z,-57
2019-01-15T22:24:15.467Z,-58
2019-01-15T22:27:04.945Z,-55
2019-01-15T22:29:42.339Z,-55
2019-01-15T22:32:22.671Z,-55
2019-01-15T22:34:52.226Z,-57
2019-01-15T22:37:29.717Z,-55
2019-01-15T22:40:01.073Z,-55
2019-01-15T22:42:44.875Z,-55
2019-01-15T22:45:16.392Z,-55
2019-01-15T22:47:54.836Z,-55
2019-01-15T22:50:29.195Z,-55
2019-01-15T22:53:16.909Z,-55
2019-01-15T22:55:57.332Z,-54
2019-01-15T22:58:37.378Z,-55
2019-01-15T23:01:29.144Z,-55
2019-01-15T23:04:04.180Z,-55
2019-01-15T23:06:36.848Z,-54
2019-01-15T23:09:23.346Z,-55
2019-01-15T23:11:54.637Z,-55
2019-01-15T23:14:26.048Z,-54
2019-01-15T23:16:57.535Z,-55
2019-01-15T23:19:28.981Z,-55
2019-01-15T23:22:00.279Z,-54
2019-01-15T23:24:34.340Z,-54
2019-01-15T23:27:20.995Z,-55
2019-01-15T23:29:52.998Z,-55
2019-01-15T23:32:30.349Z,-54
2019-01-15T23:35:02.540Z,-54
2019-01-15T23:37:36.938Z,-54
2019-01-15T23:40:13.350Z,-54
2019-01-15T23:42:47.594Z,-53
2019-01-15T23:45:35.044Z,-53
2019-01-15T23:48:10.109Z,-56
2019-01-15T23:50:47.420Z,-54
2019-01-15T23:53:19.697Z,-54
2019-01-15T23:55:55.232Z,-53
2019-01-15T23:58:26.499Z,-54
